createdAt,value
2017-05-07T00:01:02.922Z,30.88
2017-05-07T00:03:32.200Z,27.74
2017-05-07T00:06:01.161Z,30.96
2017-05-07T00:08:30.206Z,24.64
2017-05-07T00:11:00.206Z,27.54
2017-05-07T00:13:29.899Z,27.90
2017-05-07T00:15:58.862Z,29.40
2017-05-07T00:18:28.195Z,28.36
2017-05-07T00:20:57.139Z,29.84
2017-05-07T00:23:26.219Z,28.76
2017-05-07T00:25:55.474Z,29.36
2017-05-07T00:28:24.419Z,29.30
2017-05-07T00:30:53.382Z,29.34
2017-05-07T00:33:23.454Z,28.38
2017-05-07T00:35:52.394Z,32.70
2017-05-07T00:38:21.327Z,28.18
2017-05-07T00:40:50.566Z,32.36
2017-05-07T00:43:19.538Z,34.68
2017-05-07T00:45:48.569Z,30.42
2017-05-07T00:48:17.853Z,32.18
2017-05-07T00:50:47.549Z,39.50
2017-05-07T00:53:16.503Z,29.80
2017-05-07T00:55:45.864Z,31.80
2017-05-07T00:58:15.548Z,42.40
2017-05-07T01:00:44.495Z,29.10
2017-05-07T01:03:13.835Z,39.26
2017-05-07T01:05:42.777Z,33.34
2017-05-07T01:08:11.827Z,35.84
2017-05-07T01:10:41.489Z,35.30
2017-05-07T01:13:10.428Z,31.70
2017-05-07T01:15:40.128Z,32.64
2017-05-07T01:18:09.362Z,31.60
2017-05-07T01:20:38.308Z,35.68
2017-05-07T01:23:07.271Z,35.02
2017-05-07T01:25:36.515Z,35.86
2017-05-07T01:28:05.478Z,37.20
2017-05-07T01:30:34.504Z,34.76
2017-05-07T01:33:04.731Z,33.80
2017-05-07T01:35:34.403Z,35.44
2017-05-07T01:38:03.331Z,34.62
2017-05-07T01:40:33.338Z,34.26
2017-05-07T01:43:02.374Z,37.54
2017-05-07T01:45:31.316Z,35.16
2017-05-07T01:48:00.694Z,36.52
2017-05-07T01:50:29.632Z,33.92
2017-05-07T01:52:58.611Z,30.04
2017-05-07T01:55:28.616Z,29.36
2017-05-07T01:57:57.554Z,32.80
2017-05-07T02:00:26.490Z,40.12
2017-05-07T02:02:55.794Z,32.00
2017-05-07T02:05:24.738Z,32.84
2017-05-07T02:07:53.691Z,26.92
2017-05-07T02:10:23.774Z,30.58
2017-05-07T02:12:52.713Z,33.94
2017-05-07T02:15:21.635Z,34.14
2017-05-07T02:17:50.987Z,33.78
2017-05-07T02:20:20.675Z,40.66
2017-05-07T02:22:49.603Z,35.66
2017-05-07T02:25:19.586Z,40.10
2017-05-07T02:27:48.567Z,36.34
2017-05-07T02:30:17.498Z,38.36
2017-05-07T02:32:46.762Z,34.76
2017-05-07T02:35:15.738Z,40.74
2017-05-07T02:37:44.689Z,36.92
2017-05-07T02:40:13.912Z,37.88
2017-05-07T02:42:42.864Z,39.84
2017-05-07T02:45:11.842Z,38.76
2017-05-07T02:47:41.840Z,41.24
2017-05-07T02:50:10.793Z,39.02
2017-05-07T02:52:39.727Z,35.52
2017-05-07T02:55:09.034Z,43.04
2017-05-07T02:57:38.823Z,48.24
2017-05-07T03:00:07.763Z,49.88
2017-05-07T03:02:37.744Z,39.32
2017-05-07T03:05:06.718Z,54.34
2017-05-07T03:07:35.707Z,40.60
2017-05-07T03:10:06.001Z,48.54
2017-05-07T03:12:34.988Z,42.46
2017-05-07T03:15:03.937Z,53.98
2017-05-07T03:17:34.054Z,50.28
2017-05-07T03:20:02.993Z,55.74
2017-05-07T03:22:31.933Z,55.78
2017-05-07T03:25:01.263Z,49.12
2017-05-07T03:27:30.227Z,49.48
2017-05-07T03:29:59.182Z,52.58
2017-05-07T03:32:28.718Z,51.56
2017-05-07T03:34:57.675Z,51.34
2017-05-07T03:37:26.622Z,55.50
2017-05-07T03:39:56.624Z,54.16
2017-05-07T03:42:26.312Z,49.26
2017-05-07T03:44:55.278Z,57.92
2017-05-07T03:47:24.654Z,50.44
2017-05-07T03:49:53.627Z,46.16
2017-05-07T03:52:23.313Z,49.52
2017-05-07T03:54:52.696Z,50.14
2017-05-07T03:57:21.647Z,47.28
2017-05-07T03:59:50.603Z,51.28
2017-05-07T04:02:19.926Z,51.10
2017-05-07T04:04:48.877Z,46.24
2017-05-07T04:07:17.815Z,40.78
2017-05-07T04:09:47.083Z,44.34
2017-05-07T04:12:16.023Z,38.46
2017-05-07T04:14:44.975Z,45.46
2017-05-07T04:17:14.978Z,35.62
2017-05-07T04:19:43.914Z,36.96
2017-05-07T04:22:12.837Z,43.24
2017-05-07T04:24:42.238Z,37.06
2017-05-07T04:27:11.193Z,40.26
2017-05-07T04:29:40.127Z,36.38
2017-05-07T04:32:09.438Z,41.70
2017-05-07T04:34:38.385Z,36.64
2017-05-07T04:37:07.336Z,41.16
2017-05-07T04:39:37.353Z,43.92
2017-05-07T04:42:06.287Z,39.66
2017-05-07T04:44:35.243Z,40.60
2017-05-07T04:47:05.243Z,42.34
2017-05-07T04:49:34.237Z,35.34
2017-05-07T04:52:03.990Z,45.88
2017-05-07T04:54:33.242Z,40.18
2017-05-07T04:57:02.967Z,42.70
2017-05-07T04:59:32.987Z,45.64
2017-05-07T05:02:02.678Z,37.22
2017-05-07T05:04:31.645Z,43.30
2017-05-07T05:07:00.967Z,42.54
2017-05-07T05:09:29.890Z,38.18
2017-05-07T05:11:58.820Z,36.50
2017-05-07T05:14:28.062Z,37.48
2017-05-07T05:16:57.770Z,40.32
2017-05-07T05:19:43.870Z,35.12
2017-05-07T05:28:50.581Z,32.42
2017-05-07T05:31:35.561Z,34.36
2017-05-07T05:34:04.511Z,32.46
2017-05-07T05:36:33.450Z,30.80
2017-05-07T05:39:02.682Z,28.48
2017-05-07T05:41:31.602Z,28.86
2017-05-07T05:44:01.289Z,30.48
2017-05-07T05:46:30.691Z,32.02
2017-05-07T05:48:59.625Z,28.44
2017-05-07T05:51:28.568Z,30.18
2017-05-07T05:53:57.876Z,25.66
2017-05-07T05:56:26.836Z,28.12
2017-05-07T05:58:55.794Z,31.48
2017-05-07T06:01:25.743Z,30.84
2017-05-07T06:03:55.055Z,26.66
2017-05-07T06:06:24.016Z,26.94
2017-05-07T06:08:53.259Z,28.06
2017-05-07T06:11:22.219Z,22.40
2017-05-07T06:13:51.174Z,22.28
2017-05-07T06:16:21.165Z,20.94
2017-05-07T06:18:50.132Z,22.90
2017-05-07T06:21:19.105Z,23.22
2017-05-07T06:23:48.453Z,21.78
2017-05-07T06:26:18.185Z,22.26
2017-05-07T06:28:47.889Z,25.66
2017-05-07T06:31:17.887Z,21.78
2017-05-07T06:33:46.837Z,22.44
2017-05-07T06:36:15.796Z,19.46
2017-05-07T06:38:45.080Z,20.74
2017-05-07T06:41:14.781Z,18.18
2017-05-07T06:43:43.736Z,16.74
2017-05-07T06:46:13.005Z,23.94
2017-05-07T06:48:42.966Z,23.26
2017-05-07T06:51:11.931Z,21.20
2017-05-07T06:53:41.179Z,19.90
2017-05-07T06:56:10.880Z,23.08
2017-05-07T06:58:40.891Z,15.74
2017-05-07T07:01:09.842Z,21.64
2017-05-07T07:03:38.789Z,21.40
2017-05-07T07:06:08.795Z,17.88
2017-05-07T07:08:38.506Z,19.88
2017-05-07T07:11:08.282Z,17.44
2017-05-07T07:13:37.613Z,19.34
2017-05-07T07:16:07.309Z,18.76
2017-05-07T07:18:36.278Z,17.80
2017-05-07T07:21:05.598Z,19.44
2017-05-07T07:23:34.569Z,22.54
2017-05-07T07:26:03.516Z,26.34
2017-05-07T07:28:33.514Z,15.00
2017-05-07T07:31:03.183Z,13.62
2017-05-07T07:33:32.185Z,11.08
2017-05-07T07:36:01.439Z,10.30
2017-05-07T07:38:30.572Z,12.60
2017-05-07T07:40:59.578Z,14.10
2017-05-07T07:43:28.994Z,16.72
2017-05-07T07:45:58.704Z,12.86
2017-05-07T07:48:27.649Z,12.10
2017-05-07T07:50:57.001Z,15.86
2017-05-07T07:53:26.705Z,14.48
2017-05-07T07:55:56.739Z,16.40
2017-05-07T07:58:26.421Z,16.98
2017-05-07T08:00:55.402Z,16.12
2017-05-07T08:03:24.760Z,15.96
2017-05-07T08:05:53.738Z,13.76
2017-05-07T08:08:22.708Z,14.64
2017-05-07T08:10:52.015Z,10.94
2017-05-07T08:13:21.727Z,14.42
2017-05-07T08:15:51.739Z,13.40
2017-05-07T08:18:21.423Z,13.30
2017-05-07T08:20:50.367Z,12.80
2017-05-07T08:23:19.759Z,12.04
2017-05-07T08:25:48.735Z,12.46
2017-05-07T08:28:18.430Z,12.18
2017-05-07T08:30:47.733Z,10.54
2017-05-07T08:33:16.675Z,15.16
2017-05-07T08:35:46.408Z,9.36
2017-05-07T08:38:15.744Z,12.96
2017-05-07T08:40:45.434Z,11.38
2017-05-07T08:43:14.374Z,12.28
2017-05-07T08:45:43.734Z,15.60
2017-05-07T08:48:13.433Z,10.50
2017-05-07T08:50:43.148Z,9.28
2017-05-07T08:53:13.179Z,8.46
2017-05-07T08:55:42.202Z,8.34
2017-05-07T08:58:11.165Z,11.94
2017-05-07T09:00:41.150Z,12.88
2017-05-07T09:03:10.159Z,10.16
2017-05-07T09:05:39.128Z,10.16
2017-05-07T09:08:08.113Z,8.88
2017-05-07T09:10:37.098Z,9.40
2017-05-07T09:16:45.320Z,11.74
2017-05-07T09:19:17.242Z,9.14
2017-05-07T09:21:46.938Z,8.30
2017-05-07T09:24:16.985Z,10.68
2017-05-07T09:26:46.485Z,8.68
2017-05-07T09:29:15.468Z,12.74
2017-05-07T09:31:44.733Z,9.48
2017-05-07T09:34:13.710Z,10.38
2017-05-07T09:36:42.692Z,13.18
2017-05-07T09:39:12.041Z,9.20
2017-05-07T09:41:41.005Z,9.48
2017-05-07T09:44:09.991Z,9.82
2017-05-07T09:46:39.261Z,12.46
2017-05-07T09:49:08.222Z,12.68
2017-05-07T09:51:37.230Z,12.60
2017-05-07T09:54:06.516Z,11.16
2017-05-07T09:56:35.476Z,11.40
2017-05-07T09:59:04.472Z,12.20
2017-05-07T10:01:33.693Z,10.82
2017-05-07T10:04:02.761Z,12.70
2017-05-07T10:06:31.705Z,11.56
2017-05-07T10:09:01.054Z,11.22
2017-05-07T10:11:30.046Z,12.50
2017-05-07T10:13:59.010Z,10.38
2017-05-07T10:16:28.287Z,12.54
2017-05-07T10:18:57.275Z,10.82
2017-05-07T10:21:26.277Z,9.60
2017-05-07T10:23:55.608Z,11.08
2017-05-07T10:26:24.596Z,12.16
2017-05-07T10:28:53.559Z,9.44
2017-05-07T10:31:22.913Z,11.42
2017-05-07T10:33:53.058Z,9.66
2017-05-07T10:36:22.036Z,8.66
2017-05-07T10:38:51.337Z,9.18
2017-05-07T10:41:21.055Z,10.74
2017-05-07T10:43:50.025Z,6.72
2017-05-07T10:46:20.132Z,6.98
2017-05-07T10:48:49.077Z,10.16
2017-05-07T10:51:18.069Z,13.58
2017-05-07T10:53:47.348Z,12.34
2017-05-07T10:56:16.327Z,14.38
2017-05-07T10:58:46.028Z,12.22
2017-05-07T11:01:16.106Z,7.80
2017-05-07T11:03:45.087Z,8.50
2017-05-07T11:06:14.098Z,6.08
2017-05-07T11:08:43.390Z,9.72
2017-05-07T11:11:12.497Z,8.70
2017-05-07T11:13:41.468Z,16.20
2017-05-07T11:16:10.776Z,9.56
2017-05-07T11:18:39.730Z,11.18
2017-05-07T11:21:08.696Z,10.04
2017-05-07T11:23:38.694Z,7.60
2017-05-07T11:26:07.667Z,8.86
2017-05-07T11:28:36.618Z,9.16
2017-05-07T11:31:05.880Z,7.76
2017-05-07T11:33:35.625Z,11.62
2017-05-07T11:36:04.620Z,9.54
2017-05-07T11:38:33.863Z,9.40
2017-05-07T11:41:02.842Z,7.78
2017-05-07T11:43:31.761Z,8.92
2017-05-07T11:46:01.035Z,6.52
2017-05-07T11:48:30.054Z,7.86
2017-05-07T11:50:59.028Z,8.38
2017-05-07T11:53:28.475Z,7.16
2017-05-07T11:55:57.426Z,7.46
2017-05-07T11:58:26.383Z,16.14
2017-05-07T12:00:55.731Z,7.74
2017-05-07T12:03:25.147Z,7.56
2017-05-07T12:05:54.977Z,8.54
2017-05-07T12:08:24.246Z,8.66
2017-05-07T12:10:53.900Z,9.76
2017-05-07T12:13:22.895Z,5.66
2017-05-07T12:15:52.175Z,7.20
2017-05-07T12:18:21.126Z,7.78
2017-05-07T12:20:50.062Z,7.90
2017-05-07T12:23:19.313Z,6.00
2017-05-07T12:25:48.267Z,9.46
2017-05-07T12:28:17.216Z,7.22
2017-05-07T12:30:47.220Z,9.30
2017-05-07T12:33:16.162Z,8.46
2017-05-07T12:35:45.108Z,6.12
2017-05-07T12:38:15.081Z,6.50
2017-05-07T12:40:44.034Z,8.40
2017-05-07T12:43:12.991Z,6.10
2017-05-07T12:45:42.303Z,10.10
2017-05-07T12:48:12.023Z,8.18
2017-05-07T12:50:41.733Z,8.96
2017-05-07T12:53:11.730Z,8.98
2017-05-07T12:55:40.680Z,17.44
2017-05-07T12:58:09.647Z,8.88
2017-05-07T13:00:38.906Z,14.36
2017-05-07T13:03:07.889Z,7.88
2017-05-07T13:05:36.975Z,7.04
2017-05-07T13:08:06.303Z,6.52
2017-05-07T13:10:36.016Z,8.28
2017-05-07T13:13:06.167Z,7.28
2017-05-07T13:15:35.128Z,10.46
2017-05-07T13:18:04.817Z,10.58
2017-05-07T13:20:34.039Z,8.40
2017-05-07T13:23:03.748Z,6.10
2017-05-07T13:25:32.730Z,6.00
2017-05-07T13:28:02.689Z,5.60
2017-05-07T13:30:31.651Z,7.32
2017-05-07T13:33:01.359Z,7.92
2017-05-07T13:35:30.656Z,10.38
2017-05-07T13:38:00.388Z,6.40
2017-05-07T13:40:29.359Z,10.30
2017-05-07T13:42:58.828Z,7.24
2017-05-07T13:45:27.774Z,8.94
2017-05-07T13:47:56.824Z,7.84
2017-05-07T13:50:26.130Z,7.68
2017-05-07T13:52:55.921Z,8.02
2017-05-07T13:55:24.874Z,9.10
2017-05-07T13:57:54.226Z,7.02
2017-05-07T14:00:23.211Z,13.86
2017-05-07T14:02:52.159Z,12.06
2017-05-07T14:05:21.498Z,9.60
2017-05-07T14:07:50.561Z,11.92
2017-05-07T14:10:19.513Z,7.88
2017-05-07T14:12:49.515Z,8.24
2017-05-07T14:15:19.205Z,9.38
2017-05-07T14:17:48.171Z,9.54
2017-05-07T14:20:17.515Z,10.78
2017-05-07T14:22:46.513Z,12.36
2017-05-07T14:25:16.217Z,8.86
2017-05-07T14:27:47.084Z,8.14
2017-05-07T14:30:16.040Z,8.34
2017-05-07T14:32:45.044Z,22.56
2017-05-07T14:35:15.170Z,10.60
2017-05-07T14:37:44.142Z,13.78
2017-05-07T14:40:13.122Z,11.50
2017-05-07T14:42:42.423Z,12.04
2017-05-07T14:45:11.361Z,9.44
2017-05-07T14:47:40.345Z,10.64
2017-05-07T14:50:09.616Z,11.38
2017-05-07T14:52:39.431Z,13.64
2017-05-07T14:55:09.150Z,14.54
2017-05-07T14:57:39.180Z,13.46
2017-05-07T15:00:08.168Z,14.88
2017-05-07T15:02:37.204Z,11.02
2017-05-07T15:05:06.538Z,16.60
2017-05-07T15:07:35.507Z,11.18
2017-05-07T15:10:05.035Z,16.50
2017-05-07T15:12:34.333Z,10.82
2017-05-07T15:15:03.287Z,17.80
2017-05-07T15:17:32.799Z,11.82
2017-05-07T15:20:02.259Z,11.70
2017-05-07T15:22:31.214Z,10.52
2017-05-07T15:25:00.202Z,14.30
2017-05-07T15:27:29.509Z,11.90
2017-05-07T15:29:58.487Z,14.26
2017-05-07T15:32:27.458Z,14.62
2017-05-07T15:34:56.826Z,11.60
2017-05-07T15:37:25.822Z,10.52
2017-05-07T15:39:54.764Z,12.06
2017-05-07T15:42:24.082Z,8.40
2017-05-07T15:44:53.795Z,13.48
2017-05-07T15:47:23.823Z,10.24
2017-05-07T15:49:52.781Z,11.16
2017-05-07T15:52:21.756Z,15.38
2017-05-07T15:54:51.095Z,9.10
2017-05-07T15:57:20.055Z,9.74
2017-05-07T15:59:50.205Z,9.36
2017-05-07T16:02:19.608Z,12.22
2017-05-07T16:04:49.375Z,12.86
2017-05-07T16:07:18.627Z,7.50
2017-05-07T16:09:48.720Z,10.20
2017-05-07T16:12:18.473Z,9.40
2017-05-07T16:14:47.455Z,9.20
2017-05-07T16:17:32.274Z,7.02
2017-05-07T16:26:34.950Z,7.36
2017-05-07T16:29:07.805Z,7.82
2017-05-07T16:31:38.358Z,8.28
2017-05-07T16:34:07.718Z,7.70
2017-05-07T16:36:36.675Z,9.40
2017-05-07T16:39:05.656Z,6.78
2017-05-07T16:41:34.928Z,9.48
2017-05-07T16:44:03.912Z,11.42
2017-05-07T16:46:33.588Z,9.32
2017-05-07T16:49:02.841Z,9.28
2017-05-07T16:51:31.832Z,7.90
2017-05-07T16:54:00.794Z,7.24
2017-05-07T16:56:30.825Z,6.62
2017-05-07T16:59:00.519Z,8.60
2017-05-07T17:01:30.232Z,8.96
2017-05-07T17:04:00.262Z,8.20
2017-05-07T17:06:34.812Z,9.44
2017-05-07T17:09:04.037Z,8.00
2017-05-07T17:11:33.047Z,6.42
2017-05-07T17:14:02.032Z,5.64
2017-05-07T17:16:31.352Z,7.66
2017-05-07T17:19:00.336Z,11.58
2017-05-07T17:21:30.019Z,7.86
2017-05-07T17:23:59.321Z,8.18
2017-05-07T17:26:28.291Z,7.64
2017-05-07T17:28:57.262Z,10.14
2017-05-07T17:31:26.694Z,7.52
2017-05-07T17:33:55.742Z,7.10
2017-05-07T17:36:24.792Z,10.92
2017-05-07T17:38:54.129Z,9.62
2017-05-07T17:41:23.869Z,10.92
2017-05-07T17:43:52.892Z,9.88
2017-05-07T17:46:22.324Z,7.56
2017-05-07T17:48:52.246Z,8.78
2017-05-07T17:51:21.363Z,7.24
2017-05-07T17:53:50.863Z,17.90
2017-05-07T17:56:19.904Z,11.62
2017-05-07T17:58:48.908Z,8.12
2017-05-07T18:01:18.996Z,9.04
2017-05-07T18:03:48.112Z,8.06
2017-05-07T18:06:17.155Z,12.20
2017-05-07T18:08:47.583Z,10.02
2017-05-07T18:11:16.578Z,13.12
2017-05-07T18:13:45.619Z,19.46
2017-05-07T18:16:15.201Z,15.78
2017-05-07T18:18:44.217Z,28.08
2017-05-07T18:21:13.299Z,23.82
2017-05-07T18:23:42.661Z,19.90
2017-05-07T18:26:11.705Z,15.10
2017-05-07T18:28:40.792Z,21.64
2017-05-07T18:31:10.155Z,18.98
2017-05-07T18:33:39.183Z,14.68
2017-05-07T18:36:08.283Z,12.62
2017-05-07T18:38:37.655Z,15.18
2017-05-07T18:41:06.775Z,13.10
2017-05-07T18:43:35.802Z,14.78
2017-05-07T18:46:05.872Z,13.06
2017-05-07T18:48:34.924Z,12.56
2017-05-07T18:51:04.072Z,18.02
2017-05-07T18:53:33.589Z,17.46
2017-05-07T18:56:02.878Z,15.00
2017-05-07T18:58:32.051Z,12.68
2017-05-07T19:01:02.343Z,15.18
2017-05-07T19:03:31.577Z,12.20
2017-05-07T19:06:00.794Z,10.08
2017-05-07T19:08:30.449Z,13.02
2017-05-07T19:10:59.819Z,11.98
2017-05-07T19:13:28.938Z,11.16
2017-05-07T19:15:58.578Z,11.58
2017-05-07T19:18:27.787Z,19.80
2017-05-07T19:20:57.105Z,12.06
2017-05-07T19:23:26.620Z,13.46
2017-05-07T19:25:55.761Z,15.32
2017-05-07T19:28:25.000Z,19.80
2017-05-07T19:30:54.624Z,21.20
2017-05-07T19:33:23.814Z,17.86
2017-05-07T19:35:53.806Z,20.10
2017-05-07T19:38:23.462Z,20.96
2017-05-07T19:40:53.369Z,20.66
2017-05-07T19:43:22.920Z,22.38
2017-05-07T19:45:52.121Z,19.06
2017-05-07T19:48:21.249Z,19.24
2017-05-07T19:50:50.877Z,17.30
2017-05-07T19:53:19.968Z,20.14
2017-05-07T19:55:49.881Z,17.04
2017-05-07T19:58:19.786Z,19.00
2017-05-07T20:00:49.040Z,25.12
2017-05-07T20:03:18.093Z,24.16
2017-05-07T20:05:48.173Z,22.18
2017-05-07T20:08:17.361Z,22.20
2017-05-07T20:10:46.475Z,26.02
2017-05-07T20:13:15.893Z,24.64
2017-05-07T20:15:45.700Z,27.92
2017-05-07T20:18:15.971Z,24.04
2017-05-07T20:20:45.087Z,26.96
2017-05-07T20:23:14.189Z,31.00
2017-05-07T20:25:43.574Z,21.40
2017-05-07T20:28:12.890Z,28.36
2017-05-07T20:30:41.982Z,25.28
2017-05-07T20:33:11.381Z,30.58
2017-05-07T20:35:40.389Z,32.48
2017-05-07T20:38:09.435Z,32.50
2017-05-07T20:40:38.479Z,24.62
2017-05-07T20:43:07.537Z,29.90
2017-05-07T20:45:36.782Z,26.62
2017-05-07T20:48:05.823Z,30.86
2017-05-07T20:50:34.882Z,26.58
2017-05-07T20:53:04.999Z,29.08
2017-05-07T20:55:34.769Z,39.82
2017-05-07T20:58:03.775Z,24.34
2017-05-07T21:00:33.123Z,29.44
2017-05-07T21:03:02.151Z,28.68
2017-05-07T21:05:31.095Z,28.30
2017-05-07T21:08:00.460Z,34.48
2017-05-07T21:10:29.482Z,24.10
2017-05-07T21:12:59.188Z,32.44
2017-05-07T21:15:29.203Z,25.70
2017-05-07T21:17:58.938Z,28.66
2017-05-07T21:20:27.927Z,22.40
2017-05-07T21:22:57.259Z,25.62
2017-05-07T21:25:26.261Z,29.34
2017-05-07T21:27:55.246Z,25.90
2017-05-07T21:30:25.304Z,29.52
2017-05-07T21:32:55.041Z,20.72
2017-05-07T21:35:24.049Z,29.32
2017-05-07T21:37:53.307Z,31.18
2017-05-07T21:40:22.283Z,31.90
2017-05-07T21:42:51.288Z,23.54
2017-05-07T21:45:21.016Z,25.38
2017-05-07T21:47:50.723Z,22.96
2017-05-07T21:50:20.113Z,26.64
2017-05-07T21:52:49.852Z,25.08
2017-05-07T21:55:18.822Z,29.02
2017-05-07T21:57:48.563Z,28.02
2017-05-07T22:00:17.522Z,26.34
2017-05-07T22:02:46.783Z,25.54
2017-05-07T22:05:15.842Z,30.06
2017-05-07T22:07:44.793Z,24.40
2017-05-07T22:10:14.519Z,26.82
2017-05-07T22:12:43.459Z,22.36
2017-05-07T22:15:12.508Z,25.38
2017-05-07T22:17:41.468Z,21.38
2017-05-07T22:20:10.782Z,16.76
2017-05-07T22:22:39.788Z,21.66
2017-05-07T22:25:08.732Z,18.08
2017-05-07T22:27:37.715Z,20.22
2017-05-07T22:30:06.774Z,21.36
2017-05-07T22:32:36.041Z,20.06
2017-05-07T22:35:05.790Z,22.02
2017-05-07T22:37:34.754Z,22.20
2017-05-07T22:40:04.467Z,26.60
2017-05-07T22:42:33.406Z,23.70
2017-05-07T22:45:02.626Z,21.72
2017-05-07T22:47:31.555Z,21.48
2017-05-07T22:50:00.524Z,21.26
2017-05-07T22:52:30.228Z,20.90
2017-05-07T22:54:59.980Z,22.58
2017-05-07T22:57:29.335Z,16.64
2017-05-07T22:59:58.278Z,14.94
2017-05-07T23:02:27.293Z,12.28
2017-05-07T23:04:56.260Z,14.86
2017-05-07T23:07:25.189Z,15.80
2017-05-07T23:09:54.499Z,16.76
2017-05-07T23:12:23.446Z,14.58
2017-05-07T23:14:52.533Z,14.48
2017-05-07T23:17:21.524Z,27.46
2017-05-07T23:19:50.469Z,16.26
2017-05-07T23:22:20.513Z,19.10
2017-05-07T23:24:49.554Z,14.80
2017-05-07T23:27:18.498Z,14.08
2017-05-07T23:29:47.470Z,12.24
2017-05-07T23:32:17.236Z,16.76
2017-05-07T23:34:46.187Z,13.04
2017-05-07T23:37:15.135Z,11.34
2017-05-07T23:39:44.400Z,12.56
2017-05-07T23:42:13.393Z,12.34
2017-05-07T23:44:42.334Z,14.44
2017-05-07T23:47:12.067Z,10.86
2017-05-07T23:49:41.036Z,12.98
2017-05-07T23:52:11.048Z,13.14
2017-05-07T23:54:40.758Z,11.22
2017-05-07T23:57:09.701Z,17.44
2017-05-07T23:59:38.690Z,13.04
